createdAt,value
2019-02-11T00:01:53.217Z,5.87
2019-02-11T00:04:23.385Z,4.87
2019-02-11T00:06:57.030Z,4.40
2019-02-11T00:09:26.974Z,4.30
2019-02-11T00:11:56.843Z,5.03
2019-02-11T00:14:26.527Z,5.13
2019-02-11T00:16:56.360Z,4.97
2019-02-11T00:19:26.351Z,4.43
2019-02-11T00:21:57.122Z,4.30
2019-02-11T00:24:27.219Z,4.70
2019-02-11T00:26:57.877Z,5.20
2019-02-11T00:29:27.803Z,4.10
2019-02-11T00:31:57.700Z,4.30
2019-02-11T00:34:28.548Z,4.90
2019-02-11T00:36:59.579Z,4.70
2019-02-11T00:39:29.284Z,4.30
2019-02-11T00:41:59.198Z,4.33
2019-02-11T00:44:30.046Z,5.87
2019-02-11T00:46:59.939Z,4.40
2019-02-11T00:49:29.991Z,4.50
2019-02-11T00:51:59.767Z,4.77
2019-02-11T00:54:29.678Z,4.13
2019-02-11T00:56:59.351Z,4.63
2019-02-11T00:59:29.502Z,4.30
2019-02-11T01:01:59.697Z,4.13
2019-02-11T01:04:29.643Z,4.23
2019-02-11T01:07:00.497Z,3.90
2019-02-11T01:09:30.410Z,3.80
2019-02-11T01:12:00.557Z,4.03
2019-02-11T01:14:30.523Z,3.93
2019-02-11T01:17:01.490Z,4.30
2019-02-11T01:19:31.285Z,4.50
2019-02-11T01:22:01.036Z,4.07
2019-02-11T01:24:30.956Z,4.37
2019-02-11T01:27:00.735Z,4.53
2019-02-11T01:29:30.619Z,3.83
2019-02-11T01:32:00.276Z,5.33
2019-02-11T01:34:30.151Z,3.80
2019-02-11T01:37:00.307Z,5.13
2019-02-11T01:39:29.983Z,4.17
2019-02-11T01:42:00.818Z,4.00
2019-02-11T01:44:30.889Z,5.07
2019-02-11T01:47:01.552Z,4.17
2019-02-11T01:49:31.223Z,4.60
2019-02-11T01:52:01.221Z,3.57
2019-02-11T01:54:31.243Z,4.37
2019-02-11T01:57:01.206Z,4.17
2019-02-11T01:59:31.156Z,4.00
2019-02-11T02:02:01.287Z,3.60
2019-02-11T02:04:31.258Z,3.40
2019-02-11T02:07:01.009Z,3.77
2019-02-11T02:09:30.803Z,4.60
2019-02-11T02:12:01.026Z,3.90
2019-02-11T02:14:31.865Z,4.10
2019-02-11T02:17:01.752Z,4.33
2019-02-11T02:19:31.420Z,3.77
2019-02-11T02:22:01.092Z,4.10
2019-02-11T02:24:30.751Z,3.90
2019-02-11T02:27:00.421Z,4.10
2019-02-11T02:29:30.171Z,3.83
2019-02-11T02:31:59.992Z,3.27
2019-02-11T02:34:29.937Z,3.50
2019-02-11T02:37:00.057Z,4.17
2019-02-11T02:39:29.753Z,3.27
2019-02-11T02:41:59.886Z,4.37
2019-02-11T02:44:29.572Z,3.90
2019-02-11T02:46:59.495Z,3.40
2019-02-11T02:49:29.577Z,3.90
2019-02-11T02:51:59.323Z,3.60
2019-02-11T02:54:30.457Z,3.90
2019-02-11T02:57:03.387Z,4.43
2019-02-11T02:59:33.894Z,3.60
2019-02-11T03:02:05.175Z,3.23
2019-02-11T03:04:35.019Z,4.90
2019-02-11T03:07:05.584Z,6.15
2019-02-11T03:09:35.776Z,3.90
2019-02-11T03:12:05.921Z,4.35
2019-02-11T03:14:36.179Z,4.50
2019-02-11T03:17:06.442Z,3.37
2019-02-11T03:19:36.353Z,3.97
2019-02-11T03:22:06.277Z,4.23
2019-02-11T03:24:36.179Z,3.97
2019-02-11T03:27:06.090Z,3.63
2019-02-11T03:29:36.006Z,4.03
2019-02-11T03:32:06.387Z,3.90
2019-02-11T03:34:36.147Z,3.57
2019-02-11T03:37:06.042Z,4.15
2019-02-11T03:39:35.971Z,3.33
2019-02-11T03:42:05.947Z,3.60
2019-02-11T03:44:35.801Z,4.00
2019-02-11T03:47:05.702Z,3.57
2019-02-11T03:49:35.623Z,3.37
2019-02-11T03:52:05.640Z,3.67
2019-02-11T03:54:36.451Z,3.57
2019-02-11T03:57:06.461Z,3.50
2019-02-11T03:59:36.764Z,3.37
2019-02-11T04:02:07.017Z,4.55
2019-02-11T04:04:36.944Z,4.37
2019-02-11T04:07:06.862Z,3.63
2019-02-11T04:09:36.883Z,4.30
2019-02-11T04:12:06.693Z,3.53
2019-02-11T04:14:36.614Z,3.83
2019-02-11T04:17:06.857Z,4.17
2019-02-11T04:19:36.737Z,4.00
2019-02-11T04:22:08.530Z,3.80
2019-02-11T04:24:38.764Z,4.93
2019-02-11T04:27:10.184Z,4.50
2019-02-11T04:29:39.914Z,3.87
2019-02-11T04:32:09.800Z,3.77
2019-02-11T04:34:39.467Z,4.07
2019-02-11T04:37:10.770Z,3.90
2019-02-11T04:39:40.651Z,3.93
2019-02-11T04:42:10.573Z,4.20
2019-02-11T04:44:41.281Z,3.93
2019-02-11T04:47:11.002Z,3.10
2019-02-11T04:49:40.926Z,3.80
2019-02-11T04:52:10.839Z,3.30
2019-02-11T04:54:40.767Z,3.40
2019-02-11T04:57:10.776Z,3.80
2019-02-11T04:59:40.860Z,3.50
2019-02-11T05:02:10.811Z,3.37
2019-02-11T05:04:41.980Z,3.80
2019-02-11T05:07:11.863Z,4.27
2019-02-11T05:09:41.789Z,3.03
2019-02-11T05:12:11.793Z,3.57
2019-02-11T05:14:43.948Z,3.87
2019-02-11T05:17:13.585Z,3.37
2019-02-11T05:19:43.625Z,3.50
2019-02-11T05:22:13.317Z,4.07
2019-02-11T05:24:43.346Z,3.60
2019-02-11T05:27:13.894Z,3.57
2019-02-11T05:29:44.035Z,3.53
2019-02-11T05:32:13.764Z,4.08
2019-02-11T05:34:43.831Z,3.27
2019-02-11T05:37:13.579Z,3.50
2019-02-11T05:39:43.511Z,3.30
2019-02-11T05:42:13.435Z,2.87
2019-02-11T05:44:53.170Z,3.40
2019-02-11T05:47:14.782Z,3.60
2019-02-11T05:49:44.712Z,3.57
2019-02-11T05:52:14.844Z,3.10
2019-02-11T05:54:45.130Z,3.23
2019-02-11T05:57:14.798Z,3.57
2019-02-11T05:59:44.837Z,3.50
2019-02-11T06:02:16.222Z,4.62
2019-02-11T06:04:46.031Z,3.63
2019-02-11T06:07:15.697Z,3.77
2019-02-11T06:09:45.550Z,4.13
2019-02-11T06:12:16.253Z,3.57
2019-02-11T06:14:46.017Z,4.10
2019-02-11T06:17:15.896Z,4.00
2019-02-11T06:19:46.724Z,3.77
2019-02-11T06:22:16.797Z,4.13
2019-02-11T06:24:46.461Z,4.13
2019-02-11T06:27:16.443Z,4.70
2019-02-11T06:29:46.385Z,4.53
2019-02-11T06:32:17.249Z,5.35
2019-02-11T06:34:47.134Z,5.00
2019-02-11T06:37:17.062Z,4.35
2019-02-11T06:39:47.076Z,4.33
2019-02-11T06:42:17.131Z,4.47
2019-02-11T06:44:47.116Z,4.97
2019-02-11T06:47:17.011Z,4.80
2019-02-11T06:49:46.835Z,6.20
2019-02-11T06:52:16.528Z,5.08
2019-02-11T06:54:46.498Z,4.40
2019-02-11T06:57:16.398Z,4.65
2019-02-11T06:59:46.262Z,4.27
2019-02-11T07:02:16.815Z,4.30
2019-02-11T07:04:47.095Z,4.90
2019-02-11T07:07:16.954Z,5.35
2019-02-11T07:09:47.191Z,4.60
2019-02-11T07:12:17.083Z,5.33
2019-02-11T07:14:47.316Z,4.40
2019-02-11T07:17:17.469Z,4.35
2019-02-11T07:19:47.447Z,5.10
2019-02-11T07:22:17.125Z,4.87
2019-02-11T07:24:46.849Z,5.07
2019-02-11T07:27:16.563Z,4.83
2019-02-11T07:29:46.296Z,5.80
2019-02-11T07:32:15.997Z,4.33
2019-02-11T07:34:45.654Z,4.60
2019-02-11T07:37:16.302Z,5.42
2019-02-11T07:39:46.663Z,5.20
2019-02-11T07:42:25.451Z,4.70
2019-02-11T07:45:01.005Z,4.67
2019-02-11T07:47:31.067Z,4.53
2019-02-11T07:50:00.837Z,4.47
2019-02-11T07:52:30.531Z,4.50
2019-02-11T07:55:00.368Z,4.87
2019-02-11T07:57:30.086Z,4.80
2019-02-11T07:59:59.887Z,5.83
2019-02-11T08:02:29.836Z,5.20
2019-02-11T08:04:59.728Z,5.35
2019-02-11T08:07:29.433Z,5.50
2019-02-11T08:09:59.091Z,5.53
2019-02-11T08:12:28.771Z,5.47
2019-02-11T08:14:58.968Z,5.30
2019-02-11T08:17:28.642Z,5.23
2019-02-11T08:19:58.314Z,6.70
2019-02-11T08:22:27.982Z,5.62
2019-02-11T08:24:57.818Z,5.27
2019-02-11T08:27:27.557Z,5.87
2019-02-11T08:29:57.311Z,5.57
2019-02-11T08:32:28.029Z,6.83
2019-02-11T08:34:58.094Z,5.43
2019-02-11T08:37:27.961Z,5.53
2019-02-11T08:39:57.876Z,4.60
2019-02-11T08:42:27.805Z,5.90
2019-02-11T08:44:58.453Z,7.00
2019-02-11T08:47:28.160Z,4.83
2019-02-11T08:49:57.964Z,4.67
2019-02-11T08:52:27.665Z,5.07
2019-02-11T08:54:57.342Z,4.50
2019-02-11T08:57:27.006Z,4.57
2019-02-11T08:59:56.896Z,4.67
2019-02-11T09:02:27.710Z,4.17
2019-02-11T09:04:57.647Z,5.70
2019-02-11T09:07:27.344Z,4.97
2019-02-11T09:09:57.087Z,4.30
2019-02-11T09:12:27.058Z,4.58
2019-02-11T09:14:57.367Z,4.40
2019-02-11T09:17:27.192Z,5.27
2019-02-11T09:19:56.858Z,4.70
2019-02-11T09:22:26.716Z,4.33
2019-02-11T09:24:56.632Z,5.63
2019-02-11T09:27:26.308Z,4.20
2019-02-11T09:29:56.031Z,5.60
2019-02-11T09:32:25.707Z,4.33
2019-02-11T09:34:55.678Z,5.23
2019-02-11T09:37:25.390Z,4.43
2019-02-11T09:39:55.052Z,4.37
2019-02-11T09:42:24.791Z,3.73
2019-02-11T09:44:54.816Z,4.43
2019-02-11T09:47:24.720Z,4.37
2019-02-11T09:50:11.962Z,4.13
2019-02-11T09:52:41.768Z,3.30
2019-02-11T09:55:18.039Z,3.77
2019-02-11T09:57:48.189Z,3.37
2019-02-11T10:00:17.908Z,3.57
2019-02-11T10:02:47.659Z,3.67
2019-02-11T10:05:17.549Z,3.47
2019-02-11T10:07:47.205Z,3.62
2019-02-11T10:10:17.835Z,3.50
2019-02-11T10:12:47.927Z,3.90
2019-02-11T10:15:18.148Z,3.83
2019-02-11T10:17:47.937Z,3.97
2019-02-11T10:20:17.618Z,3.37
2019-02-11T10:22:47.903Z,4.77
2019-02-11T10:25:22.797Z,4.05
2019-02-11T10:27:53.700Z,3.37
2019-02-11T10:30:23.565Z,3.87
2019-02-11T10:32:53.883Z,4.03
2019-02-11T10:35:23.535Z,3.33
2019-02-11T10:37:53.268Z,4.27
2019-02-11T10:40:23.324Z,4.03
2019-02-11T10:42:52.988Z,4.10
2019-02-11T10:45:22.652Z,3.63
2019-02-11T10:47:52.746Z,3.57
2019-02-11T10:50:22.708Z,3.50
2019-02-11T10:52:53.576Z,3.63
2019-02-11T10:55:23.471Z,3.45
2019-02-11T10:57:53.433Z,3.27
2019-02-11T11:00:23.573Z,4.10
2019-02-11T11:02:53.656Z,3.17
2019-02-11T11:05:23.741Z,4.13
2019-02-11T11:07:53.655Z,4.03
2019-02-11T11:10:28.622Z,3.07
2019-02-11T11:12:58.978Z,3.33
2019-02-11T11:15:29.174Z,3.40
2019-02-11T11:17:58.828Z,2.67
2019-02-11T11:20:28.768Z,3.20
2019-02-11T11:22:58.922Z,3.10
2019-02-11T11:25:28.749Z,3.37
2019-02-11T11:27:58.823Z,3.17
2019-02-11T11:30:29.309Z,3.87
2019-02-11T11:32:59.191Z,3.40
2019-02-11T11:35:29.118Z,4.30
2019-02-11T11:37:58.941Z,3.60
2019-02-11T11:40:28.928Z,3.80
2019-02-11T11:42:58.697Z,4.13
2019-02-11T11:45:28.692Z,4.00
2019-02-11T11:47:58.683Z,4.57
2019-02-11T11:50:28.494Z,4.17
2019-02-11T11:52:58.477Z,3.63
2019-02-11T11:55:28.368Z,3.77
2019-02-11T11:57:58.111Z,4.00
2019-02-11T12:00:29.499Z,4.00
2019-02-11T12:03:04.027Z,3.30
2019-02-11T12:05:30.726Z,4.47
2019-02-11T12:08:00.684Z,4.30
2019-02-11T12:10:31.975Z,4.47
2019-02-11T12:13:20.342Z,4.20
2019-02-11T12:15:33.205Z,3.50
2019-02-11T12:18:02.872Z,3.17
2019-02-11T12:20:34.343Z,4.10
2019-02-11T12:23:04.550Z,3.03
2019-02-11T12:25:34.362Z,3.97
2019-02-11T12:28:05.297Z,3.62
2019-02-11T12:30:35.107Z,3.17
2019-02-11T12:33:06.013Z,4.35
2019-02-11T12:35:35.926Z,3.20
2019-02-11T12:38:05.581Z,3.07
2019-02-11T12:40:35.272Z,2.80
2019-02-11T12:43:04.992Z,3.40
2019-02-11T12:45:34.683Z,3.00
2019-02-11T12:48:05.324Z,2.87
2019-02-11T12:50:34.988Z,2.90
2019-02-11T12:53:05.478Z,3.33
2019-02-11T12:55:35.134Z,5.07
2019-02-11T12:58:05.809Z,3.90
2019-02-11T13:00:35.682Z,3.03
2019-02-11T13:03:06.219Z,4.03
2019-02-11T13:05:44.921Z,2.87
2019-02-11T13:08:07.544Z,4.07
2019-02-11T13:10:37.424Z,3.77
2019-02-11T13:13:07.734Z,3.80
2019-02-11T13:15:59.176Z,3.80
2019-02-11T13:18:09.391Z,3.42
2019-02-11T13:20:40.218Z,2.63
2019-02-11T13:23:10.098Z,2.67
2019-02-11T13:25:40.074Z,3.00
2019-02-11T13:28:09.743Z,2.55
2019-02-11T13:30:40.006Z,3.00
2019-02-11T13:33:09.799Z,2.77
2019-02-11T13:35:39.960Z,3.20
2019-02-11T13:38:09.877Z,3.17
2019-02-11T13:40:39.552Z,3.03
2019-02-11T13:43:09.302Z,3.13
2019-02-11T13:45:39.048Z,3.80
2019-02-11T13:48:08.766Z,3.70
2019-02-11T13:50:38.690Z,3.27
2019-02-11T13:53:08.564Z,3.15
2019-02-11T13:55:38.470Z,3.10
2019-02-11T13:58:08.460Z,3.60
2019-02-11T14:00:41.492Z,3.37
2019-02-11T14:03:11.777Z,4.20
2019-02-11T14:05:42.057Z,2.90
2019-02-11T14:08:11.731Z,3.90
2019-02-11T14:10:41.619Z,3.50
2019-02-11T14:13:13.532Z,3.60
2019-02-11T14:15:43.200Z,3.90
2019-02-11T14:18:15.571Z,3.57
2019-02-11T14:20:49.635Z,2.83
2019-02-11T14:23:17.816Z,3.50
2019-02-11T14:25:47.926Z,3.27
2019-02-11T14:28:17.927Z,3.83
2019-02-11T14:30:48.866Z,4.43
2019-02-11T14:33:18.880Z,3.67
2019-02-11T14:35:48.685Z,3.00
2019-02-11T14:38:18.599Z,3.80
2019-02-11T14:40:50.286Z,3.70
2019-02-11T14:43:21.132Z,4.10
2019-02-11T14:45:51.045Z,4.00
2019-02-11T14:48:27.842Z,2.98
2019-02-11T14:50:52.751Z,3.27
2019-02-11T14:53:22.658Z,3.47
2019-02-11T14:55:52.594Z,4.07
2019-02-11T14:58:22.439Z,4.00
2019-02-11T15:00:53.081Z,3.83
2019-02-11T15:03:22.891Z,4.07
2019-02-11T15:05:52.815Z,4.03
2019-02-11T15:08:22.497Z,3.90
2019-02-11T15:10:52.468Z,3.53
2019-02-11T15:13:22.237Z,3.47
2019-02-11T15:15:52.307Z,3.93
2019-02-11T15:18:22.286Z,3.33
2019-02-11T15:20:51.973Z,3.87
2019-02-11T15:23:21.627Z,3.90
2019-02-11T15:25:51.336Z,4.63
2019-02-11T15:28:21.012Z,4.00
2019-02-11T15:30:50.673Z,4.50
2019-02-11T15:33:20.622Z,4.40
2019-02-11T15:35:51.347Z,3.43
2019-02-11T15:38:21.019Z,3.90
2019-02-11T15:40:50.977Z,5.17
2019-02-11T15:43:21.139Z,3.80
2019-02-11T15:45:50.825Z,4.30
2019-02-11T15:48:20.739Z,3.73
2019-02-11T15:50:50.633Z,4.30
2019-02-11T15:53:20.937Z,5.60
2019-02-11T15:55:50.778Z,4.87
2019-02-11T15:58:20.815Z,4.05
2019-02-11T16:00:50.593Z,4.70
2019-02-11T16:03:20.502Z,3.60
2019-02-11T16:05:50.187Z,4.00
2019-02-11T16:08:20.073Z,4.47
2019-02-11T16:10:49.775Z,3.90
2019-02-11T16:13:19.499Z,5.03
2019-02-11T16:15:50.088Z,4.30
2019-02-11T16:18:19.978Z,4.08
2019-02-11T16:20:50.128Z,4.60
2019-02-11T16:23:19.816Z,4.55
2019-02-11T16:25:49.552Z,3.87
2019-02-11T16:28:19.373Z,4.53
2019-02-11T16:30:49.969Z,5.60
2019-02-11T16:33:19.641Z,6.00
2019-02-11T16:35:49.379Z,5.33
2019-02-11T16:38:19.056Z,5.90
2019-02-11T16:40:49.290Z,6.83
2019-02-11T16:43:19.276Z,9.27
2019-02-11T16:45:48.970Z,6.07
2019-02-11T16:48:18.825Z,5.20
2019-02-11T16:50:48.690Z,4.93
2019-02-11T16:53:18.501Z,4.60
2019-02-11T16:55:48.197Z,5.10
2019-02-11T16:58:19.224Z,4.65
2019-02-11T17:00:49.652Z,5.67
2019-02-11T17:03:19.356Z,5.75
2019-02-11T17:05:49.289Z,4.80
2019-02-11T17:08:19.314Z,4.33
2019-02-11T17:10:49.339Z,4.77
2019-02-11T17:13:19.322Z,5.20
2019-02-11T17:15:50.816Z,4.50
2019-02-11T17:18:20.687Z,4.70
2019-02-11T17:20:50.639Z,4.17
2019-02-11T17:23:20.511Z,5.20
2019-02-11T17:25:50.429Z,4.40
2019-02-11T17:28:20.379Z,5.20
2019-02-11T17:30:51.373Z,4.20
2019-02-11T17:33:21.129Z,4.17
2019-02-11T17:35:51.073Z,4.47
2019-02-11T17:38:21.382Z,5.00
2019-02-11T17:40:51.132Z,5.43
2019-02-11T17:43:22.906Z,4.80
2019-02-11T17:45:53.145Z,3.77
2019-02-11T17:48:23.719Z,4.60
2019-02-11T17:50:53.385Z,5.63
2019-02-11T17:53:23.426Z,4.97
2019-02-11T17:55:53.683Z,6.47
2019-02-11T17:58:23.616Z,4.80
2019-02-11T18:00:57.772Z,4.37
2019-02-11T18:03:27.756Z,5.33
2019-02-11T18:05:57.642Z,4.40
2019-02-11T18:08:27.648Z,4.67
2019-02-11T18:10:57.471Z,4.63
2019-02-11T18:13:27.643Z,4.83
2019-02-11T18:15:57.600Z,5.80
2019-02-11T18:18:27.566Z,5.10
2019-02-11T18:20:57.509Z,5.50
2019-02-11T18:23:27.607Z,5.07
2019-02-11T18:25:57.572Z,5.40
2019-02-11T18:28:27.505Z,5.37
2019-02-11T18:30:57.397Z,5.40
2019-02-11T18:33:27.631Z,5.13
2019-02-11T18:35:57.767Z,5.07
2019-02-11T18:38:28.373Z,4.70
2019-02-11T18:40:58.275Z,5.13
2019-02-11T18:43:28.527Z,4.67
2019-02-11T18:45:58.498Z,5.23
2019-02-11T18:48:29.882Z,4.93
2019-02-11T18:50:59.784Z,5.33
2019-02-11T18:53:29.705Z,4.47
2019-02-11T18:56:01.630Z,5.13
2019-02-11T18:58:31.641Z,5.57
2019-02-11T19:01:01.622Z,5.10
2019-02-11T19:03:32.292Z,6.23
2019-02-11T19:06:02.315Z,5.92
2019-02-11T19:08:33.441Z,5.53
2019-02-11T19:11:03.382Z,4.73
2019-02-11T19:13:33.627Z,4.93
2019-02-11T19:16:03.519Z,4.40
2019-02-11T19:18:35.297Z,4.77
2019-02-11T19:21:08.914Z,5.10
2019-02-11T19:23:39.431Z,4.40
2019-02-11T19:26:09.699Z,3.80
2019-02-11T19:28:39.562Z,4.23
2019-02-11T19:31:09.476Z,4.17
2019-02-11T19:33:39.685Z,4.40
2019-02-11T19:36:09.647Z,3.73
2019-02-11T19:38:39.511Z,3.57
2019-02-11T19:41:09.802Z,3.87
2019-02-11T19:43:39.656Z,5.60
2019-02-11T19:46:09.805Z,5.00
2019-02-11T19:48:47.105Z,4.67
2019-02-11T19:51:17.387Z,4.87
2019-02-11T19:53:47.555Z,5.67
2019-02-11T19:56:17.524Z,4.90
2019-02-11T19:58:48.188Z,4.63
2019-02-11T20:01:18.199Z,4.87
2019-02-11T20:03:48.180Z,5.00
2019-02-11T20:06:18.103Z,5.28
2019-02-11T20:08:48.012Z,5.33
2019-02-11T20:11:17.923Z,5.00
2019-02-11T20:13:47.835Z,4.70
2019-02-11T20:16:17.971Z,4.97
2019-02-11T20:18:47.968Z,5.90
2019-02-11T20:21:18.904Z,4.83
2019-02-11T20:23:48.977Z,4.73
2019-02-11T20:26:18.941Z,5.10
2019-02-11T20:28:49.407Z,4.80
2019-02-11T20:31:20.286Z,5.40
2019-02-11T20:33:50.692Z,4.70
2019-02-11T20:36:21.989Z,5.17
2019-02-11T20:38:51.883Z,4.27
2019-02-11T20:41:22.141Z,4.77
2019-02-11T20:43:52.011Z,5.17
2019-02-11T20:46:22.864Z,4.50
2019-02-11T20:48:52.773Z,6.00
2019-02-11T20:51:23.009Z,6.17
2019-02-11T20:53:53.560Z,6.60
2019-02-11T20:56:24.363Z,5.83
2019-02-11T20:58:54.525Z,4.90
2019-02-11T21:01:24.478Z,4.20
2019-02-11T21:03:55.346Z,5.63
2019-02-11T21:06:26.152Z,4.53
2019-02-11T21:08:56.089Z,4.80
2019-02-11T21:11:26.031Z,3.60
2019-02-11T21:13:55.927Z,4.47
2019-02-11T21:16:26.025Z,4.70
2019-02-11T21:18:55.742Z,5.63
2019-02-11T21:21:25.632Z,4.45
2019-02-11T21:23:55.552Z,4.00
2019-02-11T21:26:30.668Z,4.50
2019-02-11T21:29:00.613Z,3.75
2019-02-11T21:31:30.526Z,4.10
2019-02-11T21:34:01.132Z,4.17
2019-02-11T21:36:30.890Z,4.07
2019-02-11T21:39:01.888Z,3.30
2019-02-11T21:41:34.532Z,4.10
2019-02-11T21:44:05.064Z,3.83
2019-02-11T21:46:35.057Z,4.43
2019-02-11T21:49:05.596Z,4.13
2019-02-11T21:51:36.704Z,3.97
2019-02-11T21:54:07.359Z,4.90
2019-02-11T21:56:37.331Z,4.30
2019-02-11T21:59:07.402Z,4.90
2019-02-11T22:01:37.172Z,4.00
2019-02-11T22:04:07.069Z,4.50
2019-02-11T22:06:37.384Z,4.03
2019-02-11T22:09:07.958Z,4.90
2019-02-11T22:11:38.669Z,3.87
2019-02-11T22:14:09.496Z,3.95
2019-02-11T22:16:39.399Z,4.43
2019-02-11T22:19:09.745Z,3.97
2019-02-11T22:21:40.080Z,4.80
2019-02-11T22:24:10.572Z,3.80
2019-02-11T22:26:40.295Z,4.97
2019-02-11T22:29:10.223Z,4.50
2019-02-11T22:31:40.113Z,5.30
2019-02-11T22:34:10.040Z,4.93
2019-02-11T22:36:40.011Z,4.17
2019-02-11T22:39:10.810Z,4.33
2019-02-11T22:41:40.703Z,4.30
2019-02-11T22:44:10.850Z,4.70
2019-02-11T22:46:40.865Z,4.73
2019-02-11T22:49:10.892Z,5.47
2019-02-11T22:51:40.975Z,5.53
2019-02-11T22:54:11.186Z,4.47
2019-02-11T22:56:41.115Z,4.60
2019-02-11T22:59:11.013Z,4.42
2019-02-11T23:01:41.995Z,4.60
2019-02-11T23:04:12.694Z,5.30
2019-02-11T23:06:42.683Z,4.17
2019-02-11T23:09:13.148Z,4.40
2019-02-11T23:11:43.048Z,5.30
2019-02-11T23:14:14.300Z,4.40
2019-02-11T23:16:44.293Z,5.17
2019-02-11T23:19:14.063Z,5.37
2019-02-11T23:21:44.003Z,6.97
2019-02-11T23:24:14.016Z,4.43
2019-02-11T23:26:43.759Z,5.20
2019-02-11T23:29:14.012Z,5.60
2019-02-11T23:31:43.890Z,5.13
2019-02-11T23:34:14.068Z,5.60
2019-02-11T23:36:44.251Z,5.15
2019-02-11T23:39:15.837Z,4.67
2019-02-11T23:41:45.735Z,4.83
2019-02-11T23:44:15.866Z,5.97
2019-02-11T23:46:47.001Z,4.43
2019-02-11T23:49:17.457Z,5.50
2019-02-11T23:51:47.207Z,5.10
2019-02-11T23:54:17.096Z,5.47
2019-02-11T23:56:47.034Z,5.13
2019-02-11T23:59:16.896Z,4.77
